createdAt,value
2017-05-24T00:00:51.236Z,0
2017-05-24T00:02:00.453Z,0
2017-05-24T00:03:09.820Z,0
2017-05-24T00:04:19.043Z,0
2017-05-24T00:05:28.265Z,0
2017-05-24T00:06:37.156Z,0
2017-05-24T00:07:46.701Z,0
2017-05-24T00:08:55.740Z,0
2017-05-24T00:10:04.968Z,0
2017-05-24T00:11:13.856Z,0
2017-05-24T00:12:22.749Z,0
2017-05-24T00:13:31.971Z,0
2017-05-24T00:14:41.189Z,0
2017-05-24T00:15:50.405Z,0
2017-05-24T00:16:59.616Z,0
2017-05-24T00:18:09.155Z,0
2017-05-24T00:19:18.370Z,0
2017-05-24T00:20:27.409Z,0
2017-05-24T00:21:36.626Z,0
2017-05-24T00:22:45.839Z,0
2017-05-24T00:23:54.731Z,0
2017-05-24T00:25:03.947Z,0
2017-05-24T00:26:13.264Z,0
2017-05-24T00:27:22.155Z,0
2017-05-24T00:28:31.061Z,0
2017-05-24T00:29:40.278Z,0
2017-05-24T00:30:49.500Z,0
2017-05-24T00:31:58.444Z,0
2017-05-24T00:33:07.657Z,0
2017-05-24T00:34:16.876Z,0
2017-05-24T00:35:25.763Z,0
2017-05-24T00:36:34.974Z,0
2017-05-24T00:37:44.517Z,0
2017-05-24T00:38:53.728Z,0
2017-05-24T00:40:03.285Z,0
2017-05-24T00:41:12.497Z,0
2017-05-24T00:42:21.389Z,0
2017-05-24T00:43:30.755Z,0
2017-05-24T00:44:39.980Z,0
2017-05-24T00:45:49.195Z,0
2017-05-24T00:46:58.085Z,0
2017-05-24T00:48:07.303Z,0
2017-05-24T00:49:16.818Z,0
2017-05-24T00:50:26.091Z,0
2017-05-24T00:51:34.981Z,0
2017-05-24T00:52:44.199Z,0
2017-05-24T00:53:53.420Z,0
2017-05-24T00:55:02.963Z,0
2017-05-24T00:56:12.175Z,0
2017-05-24T00:57:21.080Z,0
2017-05-24T00:58:30.624Z,0
2017-05-24T00:59:39.841Z,0
2017-05-24T01:00:49.157Z,0
2017-05-24T01:01:58.061Z,0
2017-05-24T01:03:07.605Z,0
2017-05-24T01:04:17.157Z,0
2017-05-24T01:05:26.373Z,0
2017-05-24T01:06:36.062Z,0
2017-05-24T01:07:46.251Z,0
2017-05-24T01:08:55.796Z,0
2017-05-24T01:10:05.667Z,0
2017-05-24T01:11:14.561Z,0
2017-05-24T01:12:24.071Z,0
2017-05-24T01:13:33.283Z,0
2017-05-24T01:14:42.502Z,0
2017-05-24T01:15:51.719Z,0
2017-05-24T01:17:00.936Z,0
2017-05-24T01:18:09.974Z,0
2017-05-24T01:19:19.195Z,0
2017-05-24T01:20:28.730Z,0
2017-05-24T01:21:37.623Z,0
2017-05-24T01:22:46.837Z,0
2017-05-24T01:23:56.692Z,0
2017-05-24T01:25:06.237Z,0
2017-05-24T01:26:15.454Z,0
2017-05-24T01:27:24.341Z,0
2017-05-24T01:28:33.557Z,0
2017-05-24T01:29:42.598Z,0
2017-05-24T01:30:51.487Z,0
2017-05-24T01:32:00.699Z,0
2017-05-24T01:33:09.921Z,0
2017-05-24T01:34:19.141Z,0
2017-05-24T01:35:28.457Z,0
2017-05-24T01:36:37.669Z,0
2017-05-24T01:37:46.888Z,0
2017-05-24T01:38:56.098Z,0
2017-05-24T01:40:05.647Z,0
2017-05-24T01:41:14.637Z,0
2017-05-24T01:42:23.548Z,0
2017-05-24T01:43:32.769Z,0
2017-05-24T01:44:41.987Z,0
2017-05-24T01:45:50.876Z,0
2017-05-24T01:47:00.142Z,0
2017-05-24T01:48:09.360Z,0
2017-05-24T01:49:18.896Z,0
2017-05-24T01:50:27.784Z,0
2017-05-24T01:51:36.999Z,0
2017-05-24T01:52:46.692Z,0
2017-05-24T01:53:55.914Z,0
2017-05-24T01:55:05.449Z,0
2017-05-24T01:56:14.340Z,0
2017-05-24T01:57:23.553Z,0
2017-05-24T01:58:32.870Z,0
2017-05-24T01:59:42.083Z,0
2017-05-24T02:00:51.305Z,0
2017-05-24T02:02:00.851Z,0
2017-05-24T02:03:09.738Z,0
2017-05-24T02:04:18.663Z,0
2017-05-24T02:05:27.882Z,0
2017-05-24T02:06:36.771Z,0
2017-05-24T02:07:46.370Z,0
2017-05-24T02:08:55.587Z,0
2017-05-24T02:10:05.128Z,0
2017-05-24T02:11:14.345Z,0
2017-05-24T02:12:23.886Z,0
2017-05-24T02:13:32.773Z,0
2017-05-24T02:14:41.664Z,0
2017-05-24T02:15:51.303Z,0
2017-05-24T02:17:00.841Z,0
2017-05-24T02:18:09.735Z,0
2017-05-24T02:19:18.628Z,0
2017-05-24T02:20:27.517Z,0
2017-05-24T02:21:36.880Z,0
2017-05-24T02:22:46.098Z,0
2017-05-24T02:23:55.310Z,0
2017-05-24T02:25:04.219Z,0
2017-05-24T02:26:13.106Z,0
2017-05-24T02:27:22.044Z,0
2017-05-24T02:28:31.253Z,0
2017-05-24T02:29:40.146Z,0
2017-05-24T02:30:49.359Z,0
2017-05-24T02:31:58.577Z,0
2017-05-24T02:33:07.839Z,0
2017-05-24T02:34:17.059Z,0
2017-05-24T02:35:26.275Z,0
2017-05-24T02:36:35.167Z,0
2017-05-24T02:37:44.386Z,0
2017-05-24T02:38:53.653Z,0
2017-05-24T02:40:02.869Z,0
2017-05-24T02:41:12.078Z,0
2017-05-24T02:42:53.015Z,0
2017-05-24T02:44:02.284Z,0
2017-05-24T02:45:11.825Z,0
2017-05-24T02:46:20.716Z,0
2017-05-24T02:47:29.607Z,0
2017-05-24T02:48:38.497Z,0
2017-05-24T02:49:48.188Z,0
2017-05-24T02:50:57.466Z,0
2017-05-24T02:52:06.681Z,0
2017-05-24T02:53:16.549Z,0
2017-05-24T02:54:25.767Z,0
2017-05-24T02:55:34.979Z,0
2017-05-24T02:56:43.868Z,0
2017-05-24T02:57:52.767Z,0
2017-05-24T02:59:01.653Z,0
2017-05-24T03:00:10.873Z,0
2017-05-24T03:01:20.089Z,0
2017-05-24T03:02:28.980Z,0
2017-05-24T03:03:38.200Z,0
2017-05-24T03:04:47.742Z,0
2017-05-24T03:05:56.625Z,5
2017-05-24T03:07:05.563Z,5
2017-05-24T03:08:14.776Z,5
2017-05-24T03:09:23.990Z,5
2017-05-24T03:10:32.878Z,5
2017-05-24T03:11:41.768Z,5
2017-05-24T03:12:50.988Z,5
2017-05-24T03:14:00.853Z,5
2017-05-24T03:15:10.394Z,10
2017-05-24T03:16:19.613Z,10
2017-05-24T03:17:28.503Z,10
2017-05-24T03:18:38.211Z,10
2017-05-24T03:19:47.428Z,10
2017-05-24T03:20:56.642Z,15
2017-05-24T03:22:05.855Z,15
2017-05-24T03:23:15.072Z,15
2017-05-24T03:24:24.566Z,15
2017-05-24T03:25:33.779Z,15
2017-05-24T03:26:43.002Z,20
2017-05-24T03:27:52.862Z,20
2017-05-24T03:29:01.754Z,20
2017-05-24T03:30:10.642Z,20
2017-05-24T03:31:19.531Z,25
2017-05-24T03:32:28.419Z,25
2017-05-24T03:33:37.314Z,25
2017-05-24T03:34:46.531Z,25
2017-05-24T03:35:55.943Z,30
2017-05-24T03:37:05.485Z,30
2017-05-24T03:38:14.701Z,30
2017-05-24T03:39:23.916Z,30
2017-05-24T03:40:32.810Z,35
2017-05-24T03:41:42.173Z,35
2017-05-24T03:42:51.719Z,35
2017-05-24T03:44:01.260Z,40
2017-05-24T03:45:10.472Z,40
2017-05-24T03:46:19.683Z,40
2017-05-24T03:47:28.998Z,40
2017-05-24T03:48:38.223Z,45
2017-05-24T03:49:47.108Z,45
2017-05-24T03:50:55.997Z,45
2017-05-24T03:52:05.211Z,50
2017-05-24T03:53:14.582Z,50
2017-05-24T03:54:23.796Z,55
2017-05-24T03:55:33.005Z,55
2017-05-24T03:56:41.894Z,55
2017-05-24T03:57:50.783Z,55
2017-05-24T03:59:00.105Z,55
2017-05-24T04:00:09.320Z,55
2017-05-24T04:01:18.210Z,55
2017-05-24T04:02:27.100Z,60
2017-05-24T04:03:35.990Z,60
2017-05-24T04:04:45.634Z,60
2017-05-24T04:05:54.525Z,60
2017-05-24T04:07:03.418Z,60
2017-05-24T04:08:12.634Z,60
2017-05-24T04:09:21.537Z,60
2017-05-24T04:10:31.154Z,60
2017-05-24T04:11:40.369Z,60
2017-05-24T04:12:49.585Z,60
2017-05-24T04:13:58.804Z,60
2017-05-24T04:15:08.021Z,60
2017-05-24T04:16:17.020Z,65
2017-05-24T04:17:25.911Z,65
2017-05-24T04:18:34.805Z,65
2017-05-24T04:19:44.674Z,65
2017-05-24T04:20:53.889Z,65
2017-05-24T04:22:03.681Z,70
2017-05-24T04:23:12.577Z,70
2017-05-24T04:24:21.466Z,75
2017-05-24T04:25:30.370Z,75
2017-05-24T04:26:39.915Z,80
2017-05-24T04:27:48.958Z,80
2017-05-24T04:28:58.177Z,85
2017-05-24T04:30:07.718Z,90
2017-05-24T04:31:16.611Z,90
2017-05-24T04:32:25.826Z,95
2017-05-24T04:33:34.875Z,100
2017-05-24T04:34:44.417Z,100
2017-05-24T04:35:53.316Z,100
2017-05-24T04:37:02.211Z,100
2017-05-24T04:38:11.428Z,95
2017-05-24T04:39:20.693Z,90
2017-05-24T04:40:29.579Z,95
2017-05-24T04:41:38.802Z,95
2017-05-24T04:42:48.668Z,95
2017-05-24T04:43:58.207Z,100
2017-05-24T04:45:07.422Z,110
2017-05-24T04:46:16.719Z,120
2017-05-24T04:47:25.621Z,125
2017-05-24T04:48:34.509Z,145
2017-05-24T04:49:43.728Z,150
2017-05-24T04:50:52.961Z,145
2017-05-24T04:52:02.175Z,140
2017-05-24T04:53:11.636Z,145
2017-05-24T04:54:21.175Z,150
2017-05-24T04:55:30.712Z,145
2017-05-24T04:56:39.600Z,145
2017-05-24T04:57:49.143Z,155
2017-05-24T04:58:58.374Z,160
2017-05-24T05:00:07.603Z,145
2017-05-24T05:01:16.840Z,140
2017-05-24T05:02:26.055Z,140
2017-05-24T05:03:35.280Z,150
2017-05-24T05:04:44.793Z,160
2017-05-24T05:05:54.019Z,165
2017-05-24T05:07:02.912Z,165
2017-05-24T05:08:12.127Z,165
2017-05-24T05:09:21.668Z,170
2017-05-24T05:10:31.043Z,170
2017-05-24T05:11:40.267Z,165
2017-05-24T05:12:49.488Z,165
2017-05-24T05:13:58.381Z,170
2017-05-24T05:15:07.606Z,165
2017-05-24T05:16:16.501Z,180
2017-05-24T05:17:25.720Z,180
2017-05-24T05:18:35.265Z,180
2017-05-24T05:19:44.482Z,165
2017-05-24T05:20:53.696Z,160
2017-05-24T05:22:02.884Z,145
2017-05-24T05:23:11.775Z,130
2017-05-24T05:24:21.318Z,125
2017-05-24T05:25:30.209Z,120
2017-05-24T05:26:40.076Z,125
2017-05-24T05:27:49.295Z,125
2017-05-24T05:28:58.835Z,125
2017-05-24T05:30:08.383Z,120
2017-05-24T05:31:17.273Z,105
2017-05-24T05:32:26.164Z,100
2017-05-24T05:33:35.255Z,115
2017-05-24T05:34:44.809Z,115
2017-05-24T05:35:54.022Z,120
2017-05-24T05:37:02.916Z,120
2017-05-24T05:38:12.136Z,125
2017-05-24T05:39:21.504Z,130
2017-05-24T05:40:30.717Z,125
2017-05-24T05:41:39.616Z,135
2017-05-24T05:42:49.160Z,140
2017-05-24T05:43:58.703Z,140
2017-05-24T05:45:07.968Z,140
2017-05-24T05:46:17.507Z,140
2017-05-24T05:47:26.397Z,140
2017-05-24T05:48:35.617Z,140
2017-05-24T05:49:45.155Z,140
2017-05-24T05:50:54.668Z,135
2017-05-24T05:52:03.563Z,135
2017-05-24T05:53:12.787Z,135
2017-05-24T05:54:22.330Z,135
2017-05-24T05:55:31.544Z,130
2017-05-24T05:56:41.130Z,130
2017-05-24T05:57:50.349Z,135
2017-05-24T05:58:59.889Z,145
2017-05-24T06:00:09.109Z,145
2017-05-24T06:01:18.329Z,155
2017-05-24T06:02:27.524Z,160
2017-05-24T06:03:36.738Z,170
2017-05-24T06:04:45.629Z,180
2017-05-24T06:05:54.521Z,185
2017-05-24T06:07:03.745Z,190
2017-05-24T06:08:12.647Z,190
2017-05-24T06:09:22.188Z,200
2017-05-24T06:10:31.738Z,215
2017-05-24T06:11:41.279Z,225
2017-05-24T06:12:50.825Z,245
2017-05-24T06:14:00.616Z,255
2017-05-24T06:15:09.533Z,270
2017-05-24T06:16:18.750Z,260
2017-05-24T06:17:27.964Z,270
2017-05-24T06:18:37.183Z,265
2017-05-24T06:19:47.200Z,255
2017-05-24T06:20:56.415Z,255
2017-05-24T06:22:05.309Z,260
2017-05-24T06:23:14.527Z,260
2017-05-24T06:24:23.745Z,275
2017-05-24T06:25:32.799Z,285
2017-05-24T06:26:42.014Z,280
2017-05-24T06:27:50.914Z,275
2017-05-24T06:29:00.782Z,265
2017-05-24T06:30:09.678Z,265
2017-05-24T06:31:19.429Z,270
2017-05-24T06:32:28.325Z,250
2017-05-24T06:33:38.206Z,245
2017-05-24T06:34:47.750Z,250
2017-05-24T06:35:56.641Z,245
2017-05-24T06:37:05.781Z,230
2017-05-24T06:38:14.674Z,215
2017-05-24T06:39:23.893Z,220
2017-05-24T06:40:33.112Z,220
2017-05-24T06:41:42.653Z,250
2017-05-24T06:42:52.324Z,220
2017-05-24T06:44:02.201Z,205
2017-05-24T06:45:11.749Z,200
2017-05-24T06:46:21.619Z,190
2017-05-24T06:47:30.842Z,190
2017-05-24T06:48:41.091Z,195
2017-05-24T06:49:49.985Z,190
2017-05-24T06:50:59.853Z,185
2017-05-24T06:52:08.746Z,180
2017-05-24T06:53:18.616Z,185
2017-05-24T06:54:27.611Z,190
2017-05-24T06:55:36.827Z,165
2017-05-24T06:56:45.720Z,185
2017-05-24T06:57:54.941Z,190
2017-05-24T06:59:04.481Z,180
2017-05-24T07:00:13.758Z,180
2017-05-24T07:01:23.311Z,185
2017-05-24T07:02:32.533Z,190
2017-05-24T07:03:42.091Z,170
2017-05-24T07:04:51.316Z,190
2017-05-24T07:06:00.535Z,180
2017-05-24T07:07:09.773Z,190
2017-05-24T07:08:18.669Z,210
2017-05-24T07:09:28.214Z,210
2017-05-24T07:10:37.105Z,200
2017-05-24T07:11:46.145Z,205
2017-05-24T07:12:55.038Z,215
2017-05-24T07:14:04.264Z,220
2017-05-24T07:15:13.804Z,225
2017-05-24T07:16:22.697Z,230
2017-05-24T07:17:32.077Z,245
2017-05-24T07:18:41.949Z,270
2017-05-24T07:19:51.170Z,305
2017-05-24T07:21:00.717Z,355
2017-05-24T07:22:09.607Z,400
2017-05-24T07:23:18.983Z,410
2017-05-24T07:24:28.851Z,415
2017-05-24T07:25:37.752Z,425
2017-05-24T07:26:46.651Z,375
2017-05-24T07:27:56.199Z,340
2017-05-24T07:29:05.745Z,290
2017-05-24T07:30:14.973Z,250
2017-05-24T07:31:24.525Z,230
2017-05-24T07:32:33.421Z,210
2017-05-24T07:33:43.298Z,205
2017-05-24T07:34:52.673Z,215
2017-05-24T07:36:02.218Z,230
2017-05-24T07:37:11.114Z,245
2017-05-24T07:38:20.016Z,280
2017-05-24T07:39:28.914Z,270
2017-05-24T07:40:38.067Z,255
2017-05-24T07:41:47.294Z,280
2017-05-24T07:42:56.846Z,300
2017-05-24T07:44:06.071Z,325
2017-05-24T07:45:15.940Z,330
2017-05-24T07:46:24.894Z,350
2017-05-24T07:47:34.438Z,365
2017-05-24T07:48:43.659Z,340
2017-05-24T07:49:52.552Z,300
2017-05-24T07:51:02.102Z,290
2017-05-24T07:52:11.349Z,310
2017-05-24T07:53:20.666Z,285
2017-05-24T07:54:30.212Z,255
2017-05-24T07:55:39.102Z,255
2017-05-24T07:56:47.995Z,265
2017-05-24T07:57:57.596Z,270
2017-05-24T07:59:06.498Z,310
2017-05-24T08:00:15.402Z,290
2017-05-24T08:01:24.302Z,230
2017-05-24T08:02:33.523Z,240
2017-05-24T08:03:42.895Z,260
2017-05-24T08:04:52.443Z,260
2017-05-24T08:06:01.662Z,265
2017-05-24T08:07:11.207Z,260
2017-05-24T08:08:21.090Z,295
2017-05-24T08:09:30.150Z,365
2017-05-24T08:10:39.365Z,430
2017-05-24T08:11:48.583Z,460
2017-05-24T08:12:57.803Z,465
2017-05-24T08:14:06.709Z,500
2017-05-24T08:15:15.605Z,515
2017-05-24T08:16:24.830Z,535
2017-05-24T08:17:33.724Z,520
2017-05-24T08:18:43.917Z,500
2017-05-24T08:19:53.466Z,505
2017-05-24T08:21:02.695Z,515
2017-05-24T08:22:11.915Z,500
2017-05-24T08:23:21.143Z,455
2017-05-24T08:24:31.016Z,465
2017-05-24T08:25:39.912Z,430
2017-05-24T08:26:48.862Z,390
2017-05-24T08:27:58.417Z,375
2017-05-24T08:29:07.638Z,375
2017-05-24T08:30:16.860Z,385
2017-05-24T08:31:26.092Z,375
2017-05-24T08:32:35.564Z,330
2017-05-24T08:33:44.462Z,280
2017-05-24T08:34:54.006Z,315
2017-05-24T08:36:03.229Z,310
2017-05-24T08:37:12.453Z,285
2017-05-24T08:38:21.834Z,255
2017-05-24T08:39:31.388Z,245
2017-05-24T08:40:40.604Z,235
2017-05-24T08:41:49.505Z,220
2017-05-24T08:42:58.729Z,210
2017-05-24T08:44:08.098Z,205
2017-05-24T08:45:17.317Z,215
2017-05-24T08:46:26.216Z,220
2017-05-24T08:47:35.443Z,220
2017-05-24T08:48:44.667Z,215
2017-05-24T08:49:54.326Z,210
2017-05-24T08:51:03.542Z,200
2017-05-24T08:52:12.759Z,195
2017-05-24T08:53:21.655Z,205
2017-05-24T08:54:30.562Z,215
2017-05-24T08:55:39.561Z,220
2017-05-24T08:56:48.826Z,210
2017-05-24T08:57:58.054Z,205
2017-05-24T08:59:06.951Z,205
2017-05-24T09:00:16.245Z,220
2017-05-24T09:01:25.299Z,225
2017-05-24T09:02:34.525Z,225
2017-05-24T09:03:43.747Z,255
2017-05-24T09:04:52.964Z,310
2017-05-24T09:06:01.857Z,290
2017-05-24T09:07:11.133Z,350
2017-05-24T09:08:20.029Z,380
2017-05-24T09:09:29.250Z,315
2017-05-24T09:10:38.144Z,300
2017-05-24T09:11:47.366Z,270
2017-05-24T09:12:56.918Z,265
2017-05-24T09:14:05.815Z,290
2017-05-24T09:15:15.059Z,315
2017-05-24T09:16:23.959Z,285
2017-05-24T09:17:33.182Z,275
2017-05-24T09:18:42.079Z,285
2017-05-24T09:19:51.954Z,305
2017-05-24T09:21:01.175Z,360
2017-05-24T09:22:10.072Z,425
2017-05-24T09:23:19.303Z,500
2017-05-24T09:24:28.257Z,510
2017-05-24T09:25:37.172Z,520
2017-05-24T09:26:47.046Z,555
2017-05-24T09:27:56.265Z,575
2017-05-24T09:29:06.157Z,600
2017-05-24T09:30:15.305Z,595
2017-05-24T09:31:24.530Z,600
2017-05-24T09:32:33.430Z,585
2017-05-24T09:33:42.659Z,555
2017-05-24T09:34:52.534Z,545
2017-05-24T09:36:01.906Z,525
2017-05-24T09:37:10.802Z,540
2017-05-24T09:38:20.031Z,635
2017-05-24T09:39:29.576Z,670
2017-05-24T09:40:38.795Z,680
2017-05-24T09:41:47.744Z,695
2017-05-24T09:42:56.641Z,660
2017-05-24T09:44:05.541Z,650
2017-05-24T09:45:14.762Z,580
2017-05-24T09:46:23.655Z,585
2017-05-24T09:47:32.598Z,540
2017-05-24T09:48:41.507Z,515
2017-05-24T09:49:50.411Z,545
2017-05-24T09:50:59.959Z,545
2017-05-24T09:52:08.871Z,590
2017-05-24T09:53:18.257Z,675
2017-05-24T09:54:27.158Z,680
2017-05-24T09:55:36.058Z,675
2017-05-24T09:56:45.282Z,665
2017-05-24T09:57:55.165Z,655
2017-05-24T09:59:05.146Z,630
2017-05-24T10:00:14.053Z,660
2017-05-24T10:01:23.271Z,725
2017-05-24T10:02:32.493Z,725
2017-05-24T10:03:41.718Z,725
2017-05-24T10:04:50.995Z,720
2017-05-24T10:05:59.890Z,755
2017-05-24T10:07:09.450Z,770
2017-05-24T10:08:18.674Z,780
2017-05-24T10:09:28.220Z,805
2017-05-24T10:10:37.447Z,825
2017-05-24T10:11:46.346Z,820
2017-05-24T10:12:55.241Z,830
2017-05-24T10:14:04.145Z,855
2017-05-24T10:15:13.372Z,840
2017-05-24T10:16:22.601Z,815
2017-05-24T10:17:32.154Z,810
2017-05-24T10:18:41.375Z,780
2017-05-24T10:19:50.942Z,735
2017-05-24T10:20:59.837Z,705
2017-05-24T10:22:08.787Z,635
2017-05-24T10:23:18.341Z,615
2017-05-24T10:24:27.892Z,680
2017-05-24T10:25:37.113Z,775
2017-05-24T10:26:46.334Z,725
2017-05-24T10:27:56.037Z,670
2017-05-24T10:29:05.587Z,690
2017-05-24T10:30:14.815Z,710
2017-05-24T10:31:24.036Z,695
2017-05-24T10:32:33.259Z,750
2017-05-24T10:33:42.904Z,795
2017-05-24T10:34:52.783Z,845
2017-05-24T10:36:02.017Z,905
2017-05-24T10:37:10.916Z,930
2017-05-24T10:38:19.812Z,935
2017-05-24T10:39:29.510Z,905
2017-05-24T10:40:39.115Z,870
2017-05-24T10:41:48.662Z,850
2017-05-24T10:42:58.219Z,785
2017-05-24T10:44:07.444Z,735
2017-05-24T10:45:16.346Z,745
2017-05-24T10:46:25.245Z,715
2017-05-24T10:47:34.467Z,640
2017-05-24T10:48:43.368Z,565
2017-05-24T10:49:52.916Z,550
2017-05-24T10:51:01.867Z,550
2017-05-24T10:52:10.766Z,555
2017-05-24T10:53:20.015Z,605
2017-05-24T10:54:28.919Z,600
2017-05-24T10:55:37.820Z,535
2017-05-24T10:56:47.142Z,505
2017-05-24T10:57:56.372Z,585
2017-05-24T10:59:05.921Z,660
2017-05-24T11:00:14.840Z,660
2017-05-24T11:01:23.800Z,620
2017-05-24T11:02:33.006Z,640
2017-05-24T11:03:42.248Z,700
2017-05-24T11:04:51.474Z,710
2017-05-24T11:06:00.701Z,735
2017-05-24T11:07:09.924Z,750
2017-05-24T11:08:19.077Z,680
2017-05-24T11:09:28.311Z,745
2017-05-24T11:10:37.544Z,780
2017-05-24T11:11:46.767Z,815
2017-05-24T11:12:56.646Z,820
2017-05-24T11:14:05.696Z,855
2017-05-24T11:15:14.597Z,850
2017-05-24T11:16:23.501Z,795
2017-05-24T11:17:32.730Z,745
2017-05-24T11:18:41.628Z,735
2017-05-24T11:19:50.678Z,765
2017-05-24T11:20:59.906Z,790
2017-05-24T11:22:08.806Z,810
2017-05-24T11:23:18.036Z,820
2017-05-24T11:24:27.597Z,830
2017-05-24T11:25:37.357Z,795
2017-05-24T11:26:46.901Z,740
2017-05-24T11:27:56.461Z,745
2017-05-24T11:29:05.364Z,740
2017-05-24T11:30:14.606Z,740
2017-05-24T11:31:24.093Z,760
2017-05-24T11:32:32.997Z,785
2017-05-24T11:33:42.239Z,815
2017-05-24T11:34:51.808Z,875
2017-05-24T11:36:01.357Z,900
2017-05-24T11:37:10.356Z,920
2017-05-24T11:38:19.582Z,895
2017-05-24T11:39:28.482Z,910
2017-05-24T11:40:37.384Z,900
2017-05-24T11:41:46.287Z,895
2017-05-24T11:42:55.786Z,910
2017-05-24T11:44:04.701Z,975
2017-05-24T11:45:13.607Z,1035
2017-05-24T11:46:22.515Z,1070
2017-05-24T11:47:31.789Z,1090
2017-05-24T11:48:41.137Z,1015
2017-05-24T11:49:50.364Z,1005
2017-05-24T11:50:59.269Z,900
2017-05-24T11:52:08.174Z,835
2017-05-24T11:53:17.409Z,760
2017-05-24T11:54:26.997Z,730
2017-05-24T11:55:35.949Z,770
2017-05-24T11:56:45.226Z,795
2017-05-24T11:57:54.200Z,815
2017-05-24T11:59:03.904Z,800
2017-05-24T12:00:12.984Z,810
2017-05-24T12:01:22.026Z,840
2017-05-24T12:02:31.021Z,845
2017-05-24T12:03:39.953Z,835
2017-05-24T12:04:49.584Z,895
2017-05-24T12:05:59.336Z,925
2017-05-24T12:07:08.247Z,915
2017-05-24T12:08:17.534Z,945
2017-05-24T12:09:26.850Z,970
2017-05-24T12:10:37.115Z,825
2017-05-24T12:11:46.891Z,795
2017-05-24T12:12:56.467Z,825
2017-05-24T12:14:05.794Z,815
2017-05-24T12:15:14.714Z,735
2017-05-24T12:16:23.947Z,680
2017-05-24T12:17:33.927Z,615
2017-05-24T12:18:43.183Z,600
2017-05-24T12:19:52.421Z,605
2017-05-24T12:21:01.370Z,595
2017-05-24T12:22:10.733Z,575
2017-05-24T12:23:19.703Z,545
2017-05-24T12:24:29.329Z,545
2017-05-24T12:25:38.250Z,535
2017-05-24T12:26:47.229Z,520
2017-05-24T12:27:56.498Z,480
2017-05-24T12:29:05.624Z,450
2017-05-24T12:30:14.607Z,435
2017-05-24T12:31:23.885Z,435
2017-05-24T12:32:32.793Z,415
2017-05-24T12:33:42.114Z,445
2017-05-24T12:34:51.824Z,435
2017-05-24T12:36:00.815Z,420
2017-05-24T12:37:10.046Z,455
2017-05-24T12:38:19.005Z,490
2017-05-24T12:39:28.616Z,510
2017-05-24T12:40:37.901Z,500
2017-05-24T12:41:47.474Z,485
2017-05-24T12:42:56.742Z,465
2017-05-24T12:44:05.968Z,455
2017-05-24T12:45:15.204Z,450
2017-05-24T12:46:24.588Z,445
2017-05-24T12:47:33.819Z,445
2017-05-24T12:48:43.038Z,445
2017-05-24T12:49:51.946Z,435
2017-05-24T12:51:01.172Z,400
2017-05-24T12:52:10.201Z,375
2017-05-24T12:53:19.487Z,370
2017-05-24T12:54:28.771Z,370
2017-05-24T12:55:38.017Z,355
2017-05-24T12:56:46.917Z,335
2017-05-24T12:57:56.241Z,325
2017-05-24T12:59:05.157Z,310
2017-05-24T13:00:14.055Z,310
2017-05-24T13:01:23.343Z,315
2017-05-24T13:02:32.631Z,325
2017-05-24T13:03:41.673Z,345
2017-05-24T13:04:51.064Z,365
2017-05-24T13:05:59.972Z,385
2017-05-24T13:07:08.885Z,400
2017-05-24T13:08:17.795Z,415
2017-05-24T13:09:27.862Z,400
2017-05-24T13:10:36.805Z,360
2017-05-24T13:11:45.727Z,315
2017-05-24T13:12:55.019Z,290
2017-05-24T13:14:04.886Z,300
2017-05-24T13:15:14.419Z,325
2017-05-24T13:16:23.648Z,370
2017-05-24T13:17:32.550Z,365
2017-05-24T13:18:42.123Z,365
2017-05-24T13:19:51.756Z,375
2017-05-24T13:21:01.275Z,350
2017-05-24T13:22:10.172Z,370
2017-05-24T13:23:19.413Z,380
2017-05-24T13:24:28.654Z,390
2017-05-24T13:25:37.883Z,385
2017-05-24T13:26:47.228Z,365
2017-05-24T13:27:56.460Z,355
2017-05-24T13:29:05.368Z,370
2017-05-24T13:30:14.614Z,365
2017-05-24T13:31:23.521Z,345
2017-05-24T13:32:32.675Z,345
2017-05-24T13:33:42.281Z,360
2017-05-24T13:34:51.515Z,360
2017-05-24T13:36:00.756Z,350
2017-05-24T13:37:10.679Z,335
2017-05-24T13:38:20.222Z,340
2017-05-24T13:39:29.957Z,395
2017-05-24T13:40:39.572Z,455
2017-05-24T13:41:48.477Z,545
2017-05-24T13:42:57.918Z,645
2017-05-24T13:44:07.557Z,675
2017-05-24T13:45:16.476Z,650
2017-05-24T13:46:25.882Z,590
2017-05-24T13:47:34.827Z,530
2017-05-24T13:48:44.150Z,505
2017-05-24T13:49:53.641Z,490
2017-05-24T13:51:03.207Z,510
2017-05-24T13:52:12.367Z,545
2017-05-24T13:53:22.555Z,525
2017-05-24T13:54:32.111Z,515
2017-05-24T13:55:41.015Z,565
2017-05-24T13:56:50.267Z,620
2017-05-24T13:57:59.870Z,665
2017-05-24T13:59:09.302Z,615
2017-05-24T14:00:18.756Z,525
2017-05-24T14:01:28.422Z,500
2017-05-24T14:02:37.796Z,495
2017-05-24T14:03:47.404Z,490
2017-05-24T14:04:56.910Z,475
2017-05-24T14:06:06.809Z,490
2017-05-24T14:07:16.056Z,500
2017-05-24T14:08:25.746Z,495
2017-05-24T14:09:34.995Z,500
2017-05-24T14:10:44.637Z,490
2017-05-24T14:11:53.708Z,495
2017-05-24T14:13:03.197Z,495
2017-05-24T14:14:13.079Z,550
2017-05-24T14:15:22.627Z,550
2017-05-24T14:16:31.909Z,535
2017-05-24T14:17:41.542Z,515
2017-05-24T14:18:50.597Z,475
2017-05-24T14:19:59.822Z,460
2017-05-24T14:21:09.047Z,440
2017-05-24T14:22:17.941Z,395
2017-05-24T14:23:27.166Z,385
2017-05-24T14:24:36.703Z,400
2017-05-24T14:25:45.601Z,395
2017-05-24T14:26:54.504Z,340
2017-05-24T14:28:04.056Z,330
2017-05-24T14:29:12.955Z,345
2017-05-24T14:30:22.333Z,325
2017-05-24T14:31:31.558Z,275
2017-05-24T14:32:40.785Z,245
2017-05-24T14:33:49.683Z,235
2017-05-24T14:34:59.239Z,235
2017-05-24T14:36:08.612Z,235
2017-05-24T14:37:17.835Z,225
2017-05-24T14:38:28.364Z,220
2017-05-24T14:39:37.915Z,200
2017-05-24T14:40:46.812Z,180
2017-05-24T14:41:56.081Z,180
2017-05-24T14:43:05.305Z,190
2017-05-24T14:44:14.855Z,225
2017-05-24T14:45:24.076Z,255
2017-05-24T14:46:33.308Z,240
2017-05-24T14:47:42.204Z,240
2017-05-24T14:48:51.099Z,255
2017-05-24T14:50:00.647Z,255
2017-05-24T14:51:10.202Z,240
2017-05-24T14:52:19.426Z,220
2017-05-24T14:53:29.623Z,225
2017-05-24T14:54:38.841Z,265
2017-05-24T14:55:47.739Z,320
2017-05-24T14:56:56.637Z,345
2017-05-24T14:58:05.858Z,350
2017-05-24T14:59:14.907Z,370
2017-05-24T15:00:23.803Z,365
2017-05-24T15:01:32.700Z,365
2017-05-24T15:02:41.596Z,380
2017-05-24T15:03:50.818Z,415
2017-05-24T15:05:00.844Z,535
2017-05-24T15:06:09.738Z,765
2017-05-24T15:07:19.285Z,1120
2017-05-24T15:08:28.843Z,1060
2017-05-24T15:09:38.061Z,1350
2017-05-24T15:10:47.333Z,1005
2017-05-24T15:11:56.877Z,895
2017-05-24T15:13:06.145Z,855
2017-05-24T15:14:15.050Z,700
2017-05-24T15:15:24.265Z,545
2017-05-24T15:16:33.220Z,435
2017-05-24T15:17:42.449Z,385
2017-05-24T15:18:51.685Z,385
2017-05-24T15:20:00.917Z,385
2017-05-24T15:21:09.870Z,365
2017-05-24T15:22:19.196Z,365
2017-05-24T15:23:28.505Z,405
2017-05-24T15:24:38.184Z,390
2017-05-24T15:25:47.623Z,345
2017-05-24T15:26:56.743Z,310
2017-05-24T15:28:06.135Z,310
2017-05-24T15:29:15.825Z,355
2017-05-24T15:30:25.055Z,360
2017-05-24T15:31:34.283Z,345
2017-05-24T15:32:43.180Z,340
2017-05-24T15:33:52.083Z,325
2017-05-24T15:35:00.984Z,315
2017-05-24T15:36:09.880Z,310
2017-05-24T15:37:18.775Z,285
2017-05-24T15:38:28.652Z,305
2017-05-24T15:39:37.875Z,325
2017-05-24T15:40:47.435Z,345
2017-05-24T15:41:56.754Z,330
2017-05-24T15:43:05.982Z,300
2017-05-24T15:44:15.210Z,290
2017-05-24T15:45:24.778Z,295
2017-05-24T15:46:34.001Z,295
2017-05-24T15:47:42.898Z,300
2017-05-24T15:48:51.804Z,325
2017-05-24T15:50:01.023Z,325
2017-05-24T15:51:10.242Z,295
2017-05-24T15:52:19.139Z,260
2017-05-24T15:53:28.790Z,255
2017-05-24T15:54:37.688Z,255
2017-05-24T15:55:46.583Z,295
2017-05-24T15:56:55.480Z,325
2017-05-24T15:58:05.039Z,300
2017-05-24T15:59:14.739Z,265
2017-05-24T16:00:24.283Z,220
2017-05-24T16:01:33.505Z,195
2017-05-24T16:02:42.728Z,175
2017-05-24T16:03:51.956Z,155
2017-05-24T16:05:01.177Z,145
2017-05-24T16:06:10.424Z,145
2017-05-24T16:07:19.647Z,155
2017-05-24T16:08:29.515Z,150
2017-05-24T16:09:39.070Z,150